createdAt,value
2023-04-29T00:00:35.077Z,100484.03
2023-04-29T00:03:22.253Z,100477.63
2023-04-29T00:06:09.660Z,100474.22
2023-04-29T00:08:56.091Z,100477.06
2023-04-29T00:11:44.213Z,100470.22
2023-04-29T00:14:30.771Z,100475.91
2023-04-29T00:17:17.754Z,100473.91
2023-04-29T00:20:04.664Z,100477.34
2023-04-29T00:22:51.533Z,100471.50
2023-04-29T00:25:38.405Z,100472.78
2023-04-29T00:28:27.014Z,100445.63
2023-04-29T00:31:14.025Z,100470.72
2023-04-29T00:34:00.505Z,100470.16
2023-04-29T00:36:47.733Z,100462.41
2023-04-29T00:39:34.277Z,100463.41
2023-04-29T00:42:21.878Z,100468.31
2023-04-29T00:45:12.627Z,100469.69
2023-04-29T00:47:59.168Z,100467.09
2023-04-29T00:50:45.780Z,100469.69
2023-04-29T00:53:33.001Z,100462.41
2023-04-29T00:56:21.113Z,100452.91
2023-04-29T00:59:10.251Z,100455.97
2023-04-29T01:01:58.429Z,100445.00
2023-04-29T01:04:45.200Z,100436.41
2023-04-29T01:07:39.687Z,100431.06
2023-04-29T01:10:29.885Z,100428.56
2023-04-29T01:13:20.231Z,100434.66
2023-04-29T01:16:14.106Z,100432.41
2023-04-29T01:19:08.514Z,100439.69
2023-04-29T01:21:55.783Z,100433.88
2023-04-29T01:24:43.863Z,100436.41
2023-04-29T01:27:34.549Z,100427.00
2023-04-29T01:30:32.650Z,100427.63
2023-04-29T01:33:29.519Z,100420.41
2023-04-29T01:36:27.885Z,100431.22
2023-04-29T01:39:18.086Z,100428.25
2023-04-29T01:42:18.661Z,100426.38
2023-04-29T01:45:09.601Z,100422.94
2023-04-29T01:47:57.209Z,100415.41
2023-04-29T01:50:43.981Z,100424.81
2023-04-29T01:53:32.662Z,100430.13
2023-04-29T01:56:19.645Z,100428.41
2023-04-29T01:59:19.416Z,100430.91
2023-04-29T02:02:31.486Z,100428.47
2023-04-29T02:05:32.373Z,100422.38
2023-04-29T02:08:19.203Z,100421.75
2023-04-29T02:11:07.357Z,100412.19
2023-04-29T02:13:57.299Z,100409.78
2023-04-29T02:16:46.802Z,100397.72
2023-04-29T02:19:34.429Z,100406.50
2023-04-29T02:22:21.181Z,100402.06
2023-04-29T02:25:08.583Z,100399.22
2023-04-29T02:27:55.386Z,100406.88
2023-04-29T02:30:42.185Z,100407.03
2023-04-29T02:33:30.399Z,100407.50
2023-04-29T02:36:17.831Z,100404.13
2023-04-29T02:39:04.578Z,100413.09
2023-04-29T02:41:51.172Z,100411.81
2023-04-29T02:44:39.544Z,100404.81
2023-04-29T02:47:26.919Z,100410.38
2023-04-29T02:50:14.778Z,100396.50
2023-04-29T02:53:01.515Z,100404.84
2023-04-29T02:55:48.932Z,100401.69
2023-04-29T02:58:35.504Z,100398.91
2023-04-29T03:01:24.410Z,100397.28
2023-04-29T03:04:11.292Z,100397.81
2023-04-29T03:06:59.254Z,100398.44
2023-04-29T03:09:46.942Z,100390.47
2023-04-29T03:12:34.834Z,100394.84
2023-04-29T03:15:22.057Z,100396.28
2023-04-29T03:18:09.924Z,100389.22
2023-04-29T03:20:57.340Z,100387.63
2023-04-29T03:23:45.329Z,100378.16
2023-04-29T03:26:38.653Z,100385.34
2023-04-29T03:29:25.445Z,100379.53
2023-04-29T03:32:12.232Z,100384.84
2023-04-29T03:34:59.158Z,100384.69
2023-04-29T03:37:59.566Z,100385.50
2023-04-29T03:40:51.634Z,100386.28
2023-04-29T03:43:38.603Z,100391.53
2023-04-29T03:46:25.378Z,100389.22
2023-04-29T03:49:12.219Z,100388.22
2023-04-29T03:51:58.687Z,100391.97
2023-04-29T03:54:45.513Z,100393.84
2023-04-29T03:57:33.573Z,100394.84
2023-04-29T04:00:20.501Z,100390.81
2023-04-29T04:03:12.811Z,100389.16
2023-04-29T04:05:59.731Z,100385.81
2023-04-29T04:08:46.461Z,100390.13
2023-04-29T04:11:40.725Z,100390.59
2023-04-29T04:14:28.976Z,100395.78
2023-04-29T04:17:15.841Z,100400.22
2023-04-29T04:20:02.381Z,100397.19
2023-04-29T04:22:49.151Z,100393.28
2023-04-29T04:25:54.461Z,100390.84
2023-04-29T04:29:01.247Z,100393.50
2023-04-29T04:31:54.882Z,100387.88
2023-04-29T04:34:42.683Z,100387.25
2023-04-29T04:37:30.055Z,100399.81
2023-04-29T04:40:19.374Z,100389.53
2023-04-29T04:43:33.147Z,100396.31
2023-04-29T04:46:20.595Z,100394.44
2023-04-29T04:49:27.351Z,100392.84
2023-04-29T04:52:14.118Z,100391.84
2023-04-29T04:55:02.983Z,100398.72
2023-04-29T04:57:51.633Z,100400.38
2023-04-29T05:00:38.374Z,100396.13
2023-04-29T05:03:25.363Z,100397.22
2023-04-29T05:06:14.862Z,100409.13
2023-04-29T05:09:05.492Z,100402.38
2023-04-29T05:11:52.550Z,100402.38
2023-04-29T05:14:40.472Z,100404.72
2023-04-29T05:17:27.110Z,100404.91
2023-04-29T05:20:14.912Z,100406.78
2023-04-29T05:23:03.183Z,100402.44
2023-04-29T05:25:55.276Z,100406.75
2023-04-29T05:28:41.883Z,100391.16
2023-04-29T05:31:29.692Z,100412.03
2023-04-29T05:34:20.429Z,100416.63
2023-04-29T05:37:07.474Z,100413.97
2023-04-29T05:40:06.215Z,100411.47
2023-04-29T05:42:53.948Z,100419.84
2023-04-29T05:45:41.869Z,100417.97
2023-04-29T05:48:29.317Z,100421.47
2023-04-29T05:51:15.878Z,100423.59
2023-04-29T05:54:02.737Z,100418.91
2023-04-29T05:56:52.118Z,100425.22
2023-04-29T05:59:39.039Z,100426.09
2023-04-29T06:02:25.914Z,100429.03
2023-04-29T06:05:12.830Z,100427.84
2023-04-29T06:08:07.154Z,100436.75
2023-04-29T06:11:12.623Z,100432.69
2023-04-29T06:14:02.431Z,100433.56
2023-04-29T06:16:49.675Z,100430.22
2023-04-29T06:19:36.318Z,100438.06
2023-04-29T06:22:23.249Z,100448.41
2023-04-29T06:25:12.487Z,100444.50
2023-04-29T06:28:08.515Z,100453.81
2023-04-29T06:30:58.101Z,100456.97
2023-04-29T06:33:44.599Z,100453.25
2023-04-29T06:36:32.525Z,100455.16
2023-04-29T06:39:22.339Z,100467.97
2023-04-29T06:42:47.601Z,100464.78
2023-04-29T06:45:54.801Z,100468.44
2023-04-29T06:48:49.112Z,100475.34
2023-04-29T06:51:37.113Z,100475.72
2023-04-29T06:54:23.816Z,100481.38
2023-04-29T06:57:10.492Z,100477.69
2023-04-29T06:59:57.236Z,100489.28
2023-04-29T07:02:44.505Z,100489.28
2023-04-29T07:05:32.516Z,100489.72
2023-04-29T07:08:19.428Z,100496.00
2023-04-29T07:11:06.447Z,100492.56
2023-04-29T07:13:54.441Z,100496.59
2023-04-29T07:16:40.934Z,100504.34
2023-04-29T07:19:30.368Z,100512.66
2023-04-29T07:22:18.418Z,100513.34
2023-04-29T07:25:05.536Z,100500.19
2023-04-29T07:27:52.575Z,100521.03
2023-04-29T07:30:39.499Z,100520.25
2023-04-29T07:33:26.193Z,100525.66
2023-04-29T07:36:13.109Z,100525.34
2023-04-29T07:39:01.884Z,100527.47
2023-04-29T07:41:48.517Z,100533.50
2023-04-29T07:44:35.267Z,100531.44
2023-04-29T07:47:22.673Z,100536.72
2023-04-29T07:50:10.735Z,100549.88
2023-04-29T07:53:00.506Z,100551.28
2023-04-29T07:55:48.582Z,100552.69
2023-04-29T07:58:35.254Z,100549.47
2023-04-29T08:01:22.093Z,100550.94
2023-04-29T08:04:09.353Z,100557.72
2023-04-29T08:07:07.944Z,100568.63
2023-04-29T08:09:56.376Z,100573.72
2023-04-29T08:12:46.887Z,100573.41
2023-04-29T08:15:34.031Z,100587.13
2023-04-29T08:18:21.375Z,100587.50
2023-04-29T08:21:09.449Z,100588.19
2023-04-29T08:23:55.871Z,100586.53
2023-04-29T08:26:42.625Z,100595.59
2023-04-29T08:29:32.822Z,100604.53
2023-04-29T08:32:19.507Z,100608.09
2023-04-29T08:35:06.912Z,100597.19
2023-04-29T08:37:54.666Z,100620.75
2023-04-29T08:40:44.247Z,100625.53
2023-04-29T08:43:31.480Z,100631.72
2023-04-29T08:46:20.974Z,100632.63
2023-04-29T08:49:08.372Z,100632.41
2023-04-29T08:51:55.064Z,100652.31
2023-04-29T08:54:42.105Z,100657.59
2023-04-29T08:57:30.975Z,100659.72
2023-04-29T09:00:19.762Z,100669.50
2023-04-29T09:03:15.424Z,100679.56
2023-04-29T09:06:03.473Z,100676.78
2023-04-29T09:08:50.440Z,100689.88
2023-04-29T09:11:38.654Z,100694.91
2023-04-29T09:14:26.387Z,100702.75
2023-04-29T09:17:12.909Z,100702.16
2023-04-29T09:20:01.023Z,100700.88
2023-04-29T09:22:49.324Z,100701.59
2023-04-29T09:25:36.583Z,100709.66
2023-04-29T09:28:23.395Z,100713.19
2023-04-29T09:31:11.127Z,100720.94
2023-04-29T09:33:59.142Z,100723.03
2023-04-29T09:36:48.758Z,100701.28
2023-04-29T09:39:40.541Z,100725.63
2023-04-29T09:42:27.597Z,100738.00
2023-04-29T09:45:14.054Z,100733.81
2023-04-29T09:48:04.223Z,100706.19
2023-04-29T09:51:02.808Z,100739.19
2023-04-29T09:53:50.544Z,100744.88
2023-04-29T09:56:50.911Z,100753.56
2023-04-29T09:59:39.395Z,100754.00
2023-04-29T10:02:28.432Z,100763.22
2023-04-29T10:05:16.161Z,100725.34
2023-04-29T10:08:04.212Z,100766.81
2023-04-29T10:10:57.704Z,100765.22
2023-04-29T10:13:45.082Z,100770.53
2023-04-29T10:16:38.359Z,100773.44
2023-04-29T10:19:28.897Z,100785.22
2023-04-29T10:22:23.590Z,100783.25
2023-04-29T10:25:11.433Z,100787.16
2023-04-29T10:28:01.641Z,100780.84
2023-04-29T10:30:52.647Z,100783.09
2023-04-29T10:33:44.386Z,100783.25
2023-04-29T10:36:32.227Z,100755.94
2023-04-29T10:39:28.148Z,100787.34
2023-04-29T10:42:22.975Z,100788.34
2023-04-29T10:45:21.200Z,100788.03
2023-04-29T10:48:16.060Z,100797.38
2023-04-29T10:51:03.540Z,100792.75
2023-04-29T10:54:01.278Z,100794.88
2023-04-29T10:56:50.470Z,100796.53
2023-04-29T10:59:46.605Z,100789.53
2023-04-29T11:02:34.787Z,100795.47
2023-04-29T11:05:32.165Z,100809.56
2023-04-29T11:08:24.030Z,100812.53
2023-04-29T11:11:11.291Z,100803.84
2023-04-29T11:13:57.729Z,100807.44
2023-04-29T11:16:53.750Z,100811.97
2023-04-29T11:19:46.509Z,100811.41
2023-04-29T11:22:34.541Z,100817.28
2023-04-29T11:25:21.230Z,100823.69
2023-04-29T11:28:09.047Z,100817.50
2023-04-29T11:30:55.910Z,100816.88
2023-04-29T11:33:42.584Z,100820.84
2023-04-29T11:36:32.956Z,100782.78
2023-04-29T11:39:19.630Z,100832.75
2023-04-29T11:42:07.120Z,100830.78
2023-04-29T11:45:05.264Z,100833.97
2023-04-29T11:47:56.060Z,100838.63
2023-04-29T11:50:43.526Z,100840.25
2023-04-29T11:53:31.811Z,100852.25
2023-04-29T11:56:18.634Z,100856.78
2023-04-29T11:59:09.333Z,100858.31
2023-04-29T12:02:02.395Z,100863.38
2023-04-29T12:04:50.771Z,100865.59
2023-04-29T12:07:42.441Z,100868.50
2023-04-29T12:10:40.785Z,100864.53
2023-04-29T12:13:39.293Z,100876.75
2023-04-29T12:16:37.761Z,100878.16
2023-04-29T12:19:33.311Z,100883.84
2023-04-29T12:22:30.793Z,100887.19
2023-04-29T12:25:27.623Z,100886.28
2023-04-29T12:28:36.941Z,100885.56
2023-04-29T12:35:04.631Z,100888.66
2023-04-29T12:38:05.444Z,100890.63
2023-04-29T12:41:11.725Z,100891.34
2023-04-29T12:44:26.044Z,100899.88
2023-04-29T12:47:19.721Z,100901.09
2023-04-29T12:50:34.718Z,100905.06
2023-04-29T12:53:43.712Z,100905.16
2023-04-29T12:56:33.974Z,100878.09
2023-04-29T12:59:38.739Z,100909.97
2023-04-29T13:02:36.618Z,100899.72
2023-04-29T13:05:37.471Z,100906.81
2023-04-29T13:08:32.116Z,100908.19
2023-04-29T13:11:34.807Z,100903.88
2023-04-29T13:14:39.702Z,100908.28
2023-04-29T13:17:41.849Z,100916.81
2023-04-29T13:20:32.723Z,100924.69
2023-04-29T13:23:25.036Z,100925.28
2023-04-29T13:26:27.240Z,100934.50
2023-04-29T13:29:21.718Z,100931.41
2023-04-29T13:32:19.069Z,100938.31
2023-04-29T13:35:11.243Z,100941.31
2023-04-29T13:38:12.193Z,100928.75
2023-04-29T13:41:07.939Z,100935.56
2023-04-29T13:44:27.401Z,100939.28
2023-04-29T13:47:30.311Z,100958.06
2023-04-29T13:50:57.353Z,100949.16
2023-04-29T13:54:29.333Z,100948.78
2023-04-29T13:57:39.296Z,100945.09
2023-04-29T14:00:31.795Z,100950.19
2023-04-29T14:03:28.946Z,100953.13
2023-04-29T14:06:25.614Z,100948.97
2023-04-29T14:09:19.205Z,100952.59
2023-04-29T14:12:07.018Z,100949.50
2023-04-29T14:14:55.363Z,100956.38
2023-04-29T14:17:42.861Z,100954.41
2023-04-29T14:20:31.908Z,100961.94
2023-04-29T14:23:23.448Z,100962.38
2023-04-29T14:26:27.111Z,100973.28
2023-04-29T14:29:15.171Z,100976.00
2023-04-29T14:32:03.187Z,100974.75
2023-04-29T14:34:51.233Z,100976.44
2023-04-29T14:37:40.414Z,100974.56
2023-04-29T14:40:27.833Z,100966.59
2023-04-29T14:43:15.617Z,100977.41
2023-04-29T14:46:03.413Z,100980.28
2023-04-29T14:48:51.384Z,100979.38
2023-04-29T14:51:38.821Z,100977.59
2023-04-29T14:54:28.307Z,100982.44
2023-04-29T14:57:15.758Z,100984.53
2023-04-29T15:00:04.024Z,100981.75
2023-04-29T15:02:51.366Z,100982.25
2023-04-29T15:05:38.898Z,100985.00
2023-04-29T15:08:26.693Z,100988.44
2023-04-29T15:11:16.035Z,100992.84
2023-04-29T15:14:03.495Z,100991.72
2023-04-29T15:16:51.172Z,100992.53
2023-04-29T15:19:38.770Z,100986.91
2023-04-29T15:22:25.989Z,100999.97
2023-04-29T15:25:13.862Z,101006.84
2023-04-29T15:28:04.078Z,101000.56
2023-04-29T15:30:52.294Z,101000.47
2023-04-29T15:33:40.132Z,100960.84
2023-04-29T15:36:31.419Z,100992.69
2023-04-29T15:39:19.090Z,101008.75
2023-04-29T15:42:07.065Z,101009.13
2023-04-29T15:44:56.518Z,101007.97
2023-04-29T15:47:43.966Z,101012.31
2023-04-29T15:50:31.305Z,101022.03
2023-04-29T15:53:19.129Z,101023.44
2023-04-29T15:56:07.051Z,101020.00
2023-04-29T15:58:54.983Z,101033.97
2023-04-29T16:01:43.808Z,101011.16
2023-04-29T16:04:31.762Z,101038.50
2023-04-29T16:07:19.907Z,101039.44
2023-04-29T16:10:08.569Z,101036.94
2023-04-29T16:12:56.200Z,101038.31
2023-04-29T16:15:43.879Z,101040.75
2023-04-29T16:18:33.981Z,101038.16
2023-04-29T16:21:22.359Z,101039.88
2023-04-29T16:24:09.637Z,101044.56
2023-04-29T16:26:59.399Z,101044.13
2023-04-29T16:29:47.034Z,101046.97
2023-04-29T16:32:35.176Z,101053.88
2023-04-29T16:35:26.686Z,101054.97
2023-04-29T16:38:15.997Z,101055.56
2023-04-29T16:41:05.083Z,101055.59
2023-04-29T16:43:54.669Z,101066.31
2023-04-29T16:46:42.856Z,101060.97
2023-04-29T16:49:32.329Z,101037.94
2023-04-29T16:52:21.171Z,101067.84
2023-04-29T16:55:09.659Z,101064.78
2023-04-29T16:57:57.542Z,101066.91
2023-04-29T17:00:45.697Z,101070.94
2023-04-29T17:03:33.190Z,101075.59
2023-04-29T17:06:20.927Z,101081.03
2023-04-29T17:09:13.601Z,101078.09
2023-04-29T17:12:00.311Z,101085.44
2023-04-29T17:14:48.417Z,101092.88
2023-04-29T17:17:35.605Z,101086.47
2023-04-29T17:20:22.881Z,101093.91
2023-04-29T17:23:10.075Z,101095.81
2023-04-29T17:25:58.574Z,101102.69
2023-04-29T17:28:45.473Z,101117.81
2023-04-29T17:31:45.442Z,101119.00
2023-04-29T17:34:34.138Z,101120.03
2023-04-29T17:37:25.032Z,101117.91
2023-04-29T17:40:12.798Z,101128.28
2023-04-29T17:43:00.712Z,101137.25
2023-04-29T17:45:47.689Z,101132.41
2023-04-29T17:48:34.485Z,101140.84
2023-04-29T17:51:21.232Z,101149.22
2023-04-29T17:54:09.131Z,101141.09
2023-04-29T17:56:55.953Z,101143.75
2023-04-29T17:59:44.058Z,101150.41
2023-04-29T18:02:32.674Z,101151.84
2023-04-29T18:05:20.682Z,101155.41
2023-04-29T18:08:07.414Z,101144.56
2023-04-29T18:10:54.074Z,101148.25
2023-04-29T18:13:41.077Z,101156.97
2023-04-29T18:16:29.237Z,101164.28
2023-04-29T18:19:15.686Z,101164.50
2023-04-29T18:22:02.833Z,101169.53
2023-04-29T18:24:49.954Z,101168.53
2023-04-29T18:27:36.789Z,101174.56
2023-04-29T18:30:23.573Z,101181.84
2023-04-29T18:33:11.811Z,101181.59
2023-04-29T18:35:58.592Z,101180.50
2023-04-29T18:38:45.375Z,101186.03
2023-04-29T18:41:33.203Z,101193.72
2023-04-29T18:44:20.122Z,101195.84
2023-04-29T18:47:06.818Z,101201.31
2023-04-29T18:49:55.265Z,101206.47
2023-04-29T18:52:42.673Z,101208.66
2023-04-29T18:55:52.955Z,101202.22
2023-04-29T18:58:44.024Z,101215.34
2023-04-29T19:01:30.867Z,101217.34
2023-04-29T19:04:17.696Z,101218.44
2023-04-29T19:07:08.017Z,101227.38
2023-04-29T19:09:57.287Z,101229.72
2023-04-29T19:12:45.492Z,101232.63
2023-04-29T19:15:40.745Z,101236.97
2023-04-29T19:18:31.865Z,101239.22
2023-04-29T19:21:20.372Z,101254.84
2023-04-29T19:24:09.186Z,101254.88
2023-04-29T19:27:02.141Z,101248.59
2023-04-29T19:29:57.190Z,101260.28
2023-04-29T19:33:01.124Z,101263.94
2023-04-29T19:36:03.187Z,101266.97
2023-04-29T19:38:53.690Z,101272.59
2023-04-29T19:41:51.100Z,101283.34
2023-04-29T19:44:41.863Z,101278.75
2023-04-29T19:47:44.656Z,101284.13
2023-04-29T19:50:45.583Z,101277.25
2023-04-29T19:53:46.933Z,101272.06
2023-04-29T19:56:58.475Z,101277.81
2023-04-29T20:00:22.205Z,101279.00
2023-04-29T20:03:13.209Z,101290.47
2023-04-29T20:06:02.280Z,101288.16
2023-04-29T20:08:51.053Z,101286.56
2023-04-29T20:11:38.416Z,101291.00
2023-04-29T20:14:25.925Z,101297.47
2023-04-29T20:17:13.871Z,101308.09
2023-04-29T20:20:00.442Z,101319.91
2023-04-29T20:22:47.267Z,101313.69
2023-04-29T20:25:34.021Z,101324.50
2023-04-29T20:28:20.901Z,101328.56
2023-04-29T20:31:08.654Z,101324.09
2023-04-29T20:33:56.557Z,101330.31
2023-04-29T20:36:43.224Z,101328.09
2023-04-29T20:39:29.976Z,101334.22
2023-04-29T20:42:16.964Z,101340.28
2023-04-29T20:45:03.501Z,101335.09
2023-04-29T20:47:50.344Z,101349.44
2023-04-29T20:50:38.539Z,101340.69
2023-04-29T20:53:25.787Z,101347.44
2023-04-29T20:56:12.237Z,101349.47
2023-04-29T20:58:59.733Z,101346.63
2023-04-29T21:01:46.681Z,101350.16
2023-04-29T21:04:33.323Z,101357.16
2023-04-29T21:07:21.492Z,101352.63
2023-04-29T21:10:08.852Z,101368.56
2023-04-29T21:12:55.604Z,101366.72
2023-04-29T21:15:45.570Z,101372.31
2023-04-29T21:18:32.419Z,101373.25
2023-04-29T21:21:19.215Z,101370.59
2023-04-29T21:24:07.459Z,101375.50
2023-04-29T21:26:54.333Z,101388.34
2023-04-29T21:29:41.153Z,101386.16
2023-04-29T21:32:28.090Z,101390.84
2023-04-29T21:35:14.985Z,101395.13
2023-04-29T21:38:01.747Z,101397.22
2023-04-29T21:40:50.067Z,101395.66
2023-04-29T21:43:36.591Z,101394.78
2023-04-29T21:46:23.258Z,101394.75
2023-04-29T21:49:10.337Z,101398.69
2023-04-29T21:51:57.136Z,101406.91
2023-04-29T21:54:43.887Z,101409.72
2023-04-29T21:57:43.745Z,101404.88
2023-04-29T22:00:33.420Z,101414.69
2023-04-29T22:03:19.961Z,101416.25
2023-04-29T22:06:06.874Z,101417.22
2023-04-29T22:08:53.773Z,101413.44
2023-04-29T22:11:40.830Z,101424.78
2023-04-29T22:14:28.773Z,101425.47
2023-04-29T22:17:15.821Z,101430.56
2023-04-29T22:20:04.420Z,101433.19
2023-04-29T22:22:51.783Z,101442.19
2023-04-29T22:25:38.405Z,101436.53
2023-04-29T22:28:25.205Z,101441.75
2023-04-29T22:31:13.457Z,101451.38
2023-04-29T22:34:00.155Z,101447.75
2023-04-29T22:36:46.981Z,101448.50
2023-04-29T22:39:33.865Z,101453.00
2023-04-29T22:42:21.037Z,101456.31
2023-04-29T22:45:09.410Z,101456.78
2023-04-29T22:47:57.689Z,101458.63
2023-04-29T22:50:51.331Z,101470.16
2023-04-29T22:53:46.594Z,101467.63
2023-04-29T22:56:45.154Z,101473.06
2023-04-29T22:59:35.797Z,101475.56
2023-04-29T23:02:27.575Z,101479.31
2023-04-29T23:05:15.819Z,101476.25
2023-04-29T23:08:02.635Z,101484.03
2023-04-29T23:10:50.102Z,101482.69
2023-04-29T23:13:36.835Z,101486.50
2023-04-29T23:16:23.559Z,101484.84
2023-04-29T23:19:10.288Z,101492.53
2023-04-29T23:21:58.490Z,101489.31
2023-04-29T23:24:45.171Z,101497.13
2023-04-29T23:27:31.633Z,101492.00
2023-04-29T23:30:18.588Z,101491.50
2023-04-29T23:33:05.590Z,101488.19
2023-04-29T23:35:52.818Z,101492.63
2023-04-29T23:38:42.068Z,101491.59
2023-04-29T23:41:29.093Z,101494.41
2023-04-29T23:44:16.091Z,101501.91
2023-04-29T23:47:02.968Z,101504.84
2023-04-29T23:49:49.686Z,101499.69
2023-04-29T23:52:36.539Z,101504.22
2023-04-29T23:55:24.759Z,101501.56
2023-04-29T23:58:11.540Z,101501.38
